Time;durP1;ratioP1;P1;durP2;ratioP2;P2;SDS_P1;SDS_P2;PMS_P1;PMS_P2;Temp;Humidity;BMP_temperature;BMP_pressure;BME280_temperature;BME280_humidity;BME280_pressure;Samples;Min_cycle;Max_cycle;Signal;HPM_P1;HPM_P2
2021/08/15 00:01:30;;;;;;;8.65;5.70;;;;;;;18.41;58.72;101059.78;1810921;79;21782;-79
2021/08/15 00:03:57;;;;;;;7.17;4.40;;;;;;;18.41;58.80;101057.13;1813857;79;21290;-79
2021/08/15 00:06:24;;;;;;;8.45;5.00;;;;;;;18.43;58.77;101063.33;1815230;78;21096;-79
2021/08/15 00:08:50;;;;;;;10.93;4.72;;;;;;;18.43;58.78;101062.91;1814212;79;20999;-80
2021/08/15 00:11:17;;;;;;;8.23;4.30;;;;;;;18.44;58.81;101063.79;1812987;79;21078;-80
2021/08/15 00:13:45;;;;;;;8.78;4.25;;;;;;;18.46;58.81;101068.67;1817275;78;21700;-79
2021/08/15 00:16:16;;;;;;;11.43;4.90;;;;;;;18.46;58.79;101069.55;1809464;79;21582;-80
2021/08/15 00:18:42;;;;;;;10.95;4.50;;;;;;;18.48;58.80;101064.67;1813527;79;21062;-79
2021/08/15 00:21:09;;;;;;;7.22;4.10;;;;;;;18.48;58.80;101066.88;1813981;79;21547;-80
2021/08/15 00:23:35;;;;;;;9.13;4.58;;;;;;;18.48;58.79;101066.88;1790957;78;21049;-80
2021/08/15 00:26:02;;;;;;;9.25;4.53;;;;;;;18.48;58.87;101068.67;1813916;78;22636;-80
2021/08/15 00:28:29;;;;;;;9.58;4.60;;;;;;;18.48;58.87;101070.00;1809705;79;21096;-79
2021/08/15 00:30:55;;;;;;;9.70;4.97;;;;;;;18.46;58.91;101080.66;1815208;78;21077;-79
2021/08/15 00:33:22;;;;;;;8.83;5.33;;;;;;;18.45;58.96;101078.91;1813466;79;21137;-79
2021/08/15 00:35:49;;;;;;;11.73;4.22;;;;;;;18.44;59.04;101074.45;1812709;79;21125;-79
2021/08/15 00:38:15;;;;;;;8.55;4.30;;;;;;;18.44;59.06;101075.78;1813881;79;21768;-79
2021/08/15 00:40:42;;;;;;;7.25;3.90;;;;;;;18.44;59.17;101082.45;1814036;79;21109;-80
2021/08/15 00:43:09;;;;;;;9.98;4.67;;;;;;;18.44;59.24;101081.11;1813829;79;21038;-79
2021/08/15 00:45:38;;;;;;;10.00;4.33;;;;;;;18.46;59.30;101083.33;1813800;79;21261;-80
2021/08/15 00:48:09;;;;;;;9.13;3.92;;;;;;;18.42;59.29;101081.11;1813561;79;21164;-79
2021/08/15 00:50:37;;;;;;;9.95;3.65;;;;;;;18.39;59.44;101093.13;1814337;79;21686;-79
2021/08/15 00:53:08;;;;;;;8.83;4.40;;;;;;;18.36;59.75;101094.45;1796282;79;21102;-80
2021/08/15 00:55:34;;;;;;;9.25;3.58;;;;;;;18.35;60.08;101093.12;1810593;78;21035;-80
2021/08/15 00:58:05;;;;;;;9.15;4.10;;;;;;;18.35;60.47;101070.47;1812946;79;21242;-80
2021/08/15 01:00:31;;;;;;;7.45;4.62;;;;;;;18.34;60.56;101070.02;1812350;78;21049;-80
2021/08/15 01:02:59;;;;;;;8.30;3.30;;;;;;;18.35;60.92;101076.67;1812893;79;21708;-79
2021/08/15 01:05:26;;;;;;;5.60;3.50;;;;;;;18.38;61.10;101088.67;1815351;78;21101;-79
2021/08/15 01:07:53;;;;;;;6.85;3.02;;;;;;;18.39;61.25;101090.47;1812910;79;20991;-80
2021/08/15 01:10:20;;;;;;;6.58;3.55;;;;;;;18.39;61.58;101088.22;1805823;79;21073;-80
2021/08/15 01:12:47;;;;;;;9.18;3.33;;;;;;;18.38;61.74;101087.34;1800455;78;21106;-80
2021/08/15 01:15:17;;;;;;;4.20;2.95;;;;;;;18.38;62.00;101088.67;1813030;79;21865;-80
2021/08/15 01:17:45;;;;;;;5.08;3.42;;;;;;;18.37;62.11;101080.22;1789358;79;20995;-80
2021/08/15 01:20:12;;;;;;;8.88;3.67;;;;;;;18.34;62.31;101080.25;1814178;79;21164;-80
2021/08/15 01:22:43;;;;;;;6.30;2.83;;;;;;;18.37;62.45;101080.67;1813143;79;21109;-80
2021/08/15 01:25:11;;;;;;;6.10;2.40;;;;;;;18.37;62.66;101076.68;1811545;79;21007;-80
2021/08/15 01:27:40;;;;;;;5.72;2.83;;;;;;;18.37;62.65;101077.56;1810155;79;21771;-79
2021/08/15 01:30:10;;;;;;;5.67;2.92;;;;;;;18.38;62.79;101079.80;1816700;78;21049;-80
2021/08/15 01:32:44;;;;;;;4.42;2.62;;;;;;;18.38;62.93;101080.68;1814115;79;21681;-80
2021/08/15 01:35:11;;;;;;;5.78;2.77;;;;;;;18.37;62.96;101075.34;1814811;78;20999;-80
2021/08/15 01:37:38;;;;;;;5.85;2.45;;;;;;;18.37;63.01;101073.56;1783828;78;21592;-80
2021/08/15 01:40:07;;;;;;;3.65;2.10;;;;;;;18.37;63.10;101076.23;1813558;79;21748;-80
2021/08/15 01:42:37;;;;;;;7.75;2.75;;;;;;;18.39;63.19;101069.56;1814432;78;21039;-79
2021/08/15 01:45:10;;;;;;;4.65;2.55;;;;;;;18.39;63.32;101072.23;1813119;79;21268;-80
2021/08/15 01:47:37;;;;;;;4.72;2.80;;;;;;;18.37;63.46;101074.02;1809973;79;21113;-80
2021/08/15 01:50:04;;;;;;;5.08;2.50;;;;;;;18.38;63.54;101078.47;1815465;78;21062;-80
2021/08/15 01:52:33;;;;;;;6.15;3.30;;;;;;;18.36;63.64;101070.47;1813702;79;21078;-80
2021/08/15 01:54:59;;;;;;;4.87;2.58;;;;;;;18.33;63.66;101068.25;1816215;78;21113;-80
2021/08/15 01:57:26;;;;;;;4.75;2.70;;;;;;;18.33;63.73;101065.59;1809507;78;21604;-80
2021/08/15 01:59:53;;;;;;;5.58;2.72;;;;;;;18.32;63.77;101063.38;1812859;79;21109;-80
2021/08/15 02:02:20;;;;;;;4.58;2.65;;;;;;;18.32;63.79;101059.80;1814109;79;21614;-80
2021/08/15 02:04:46;;;;;;;8.03;3.37;;;;;;;18.32;63.82;101054.05;1814071;79;21744;-80
2021/08/15 02:07:13;;;;;;;4.40;2.70;;;;;;;18.33;63.85;101045.60;1813609;78;21089;-80
2021/08/15 02:09:40;;;;;;;4.20;2.50;;;;;;;18.33;63.97;101047.81;1813967;78;21065;-80
2021/08/15 02:12:09;;;;;;;4.80;2.60;;;;;;;18.33;64.06;101049.14;1813232;79;21196;-80
2021/08/15 02:14:36;;;;;;;4.85;2.42;;;;;;;18.33;64.09;101053.59;1813434;79;20980;-79
2021/08/15 02:17:03;;;;;;;5.92;2.70;;;;;;;18.31;64.12;101050.05;1813835;79;21761;-79
2021/08/15 02:19:30;;;;;;;5.55;2.90;;;;;;;18.26;64.20;101048.30;1812442;79;21544;-80
2021/08/15 02:21:57;;;;;;;6.33;2.50;;;;;;;18.21;64.34;101041.20;1810766;78;21063;-79
2021/08/15 02:24:23;;;;;;;7.80;3.33;;;;;;;18.16;64.41;101034.52;1810970;78;21255;-80
2021/08/15 02:26:54;;;;;;;9.30;3.30;;;;;;;18.13;64.51;101035.88;1813298;79;21110;-79
2021/08/15 02:29:21;;;;;;;7.45;2.52;;;;;;;18.10;64.53;101032.34;1786277;79;21292;-79
2021/08/15 02:31:49;;;;;;;5.00;2.55;;;;;;;18.05;64.66;101030.98;1786941;78;21030;-79
2021/08/15 02:34:16;;;;;;;4.33;2.60;;;;;;;18.00;64.77;101029.68;1813964;78;21547;-79
2021/08/15 02:36:42;;;;;;;4.65;2.80;;;;;;;17.97;64.84;101026.13;1811967;79;21042;-80
2021/08/15 02:39:09;;;;;;;7.08;2.87;;;;;;;17.95;64.93;101022.58;1814422;79;21128;-80
2021/08/15 02:41:36;;;;;;;5.37;2.70;;;;;;;17.94;64.92;101030.11;1814140;79;21688;-80
2021/08/15 02:44:06;;;;;;;3.77;2.37;;;;;;;17.93;64.89;101027.03;1815368;78;21101;-81
2021/08/15 02:46:31;;;;;;;6.25;3.05;;;;;;;17.88;64.83;101013.25;1813535;79;21026;-81
2021/08/15 02:49:00;;;;;;;5.95;3.02;;;;;;;17.84;64.83;101004.82;1817695;78;21096;-81
2021/08/15 02:51:27;;;;;;;5.67;2.35;;;;;;;17.81;64.93;101006.14;1813586;79;21042;-81
2021/08/15 02:53:54;;;;;;;4.80;2.52;;;;;;;17.79;64.94;101003.93;1812690;79;22576;-81
2021/08/15 02:56:21;;;;;;;5.05;2.67;;;;;;;17.78;65.00;101007.47;1812975;79;21065;-81
2021/08/15 02:58:48;;;;;;;6.87;2.95;;;;;;;17.79;64.95;101002.59;1813638;79;21913;-81
2021/08/15 03:01:14;;;;;;;6.35;2.90;;;;;;;17.80;65.00;101008.34;1814961;78;21508;-81
2021/08/15 03:03:41;;;;;;;6.62;3.17;;;;;;;17.81;64.90;100998.58;1813978;79;21144;-81
2021/08/15 03:06:09;;;;;;;5.03;3.00;;;;;;;17.82;64.77;101001.70;1816038;78;21883;-81
2021/08/15 03:08:36;;;;;;;6.53;3.12;;;;;;;17.82;64.75;101003.03;1815367;78;20991;-81
2021/08/15 03:11:03;;;;;;;5.78;2.60;;;;;;;17.84;64.69;101001.25;1809601;79;21070;-81
2021/08/15 03:13:33;;;;;;;6.15;2.77;;;;;;;17.83;64.52;100999.45;1804411;78;21074;-81
2021/08/15 03:15:58;;;;;;;6.42;3.05;;;;;;;17.83;64.43;100995.05;1807873;78;21137;-81
2021/08/15 03:18:25;;;;;;;8.40;3.17;;;;;;;17.82;64.37;100997.25;1813300;79;21785;-81
2021/08/15 03:20:54;;;;;;;10.70;3.10;;;;;;;17.81;64.20;101007.47;1812489;78;21121;-81
2021/08/15 03:23:21;;;;;;;6.08;2.98;;;;;;;17.81;64.17;101002.57;1812523;79;21058;-81
2021/08/15 03:25:53;;;;;;;6.25;2.77;;;;;;;17.79;64.11;101001.69;1814630;78;21184;-81
2021/08/15 03:28:19;;;;;;;6.42;2.80;;;;;;;17.75;64.14;100999.47;1813218;79;21615;-81
2021/08/15 03:30:46;;;;;;;8.00;3.17;;;;;;;17.74;64.25;100992.84;1811778;78;21761;-81
2021/08/15 03:33:13;;;;;;;6.67;3.10;;;;;;;17.74;64.34;100992.84;1814068;78;21038;-81
2021/08/15 03:35:45;;;;;;;7.00;3.08;;;;;;;17.74;64.37;100998.16;1810840;79;21155;-80
2021/08/15 03:38:16;;;;;;;8.13;3.80;;;;;;;17.73;64.50;100995.92;1799622;79;21026;-80
2021/08/15 03:40:42;;;;;;;4.75;2.67;;;;;;;17.75;64.56;100998.59;1812312;78;21109;-80
2021/08/15 03:43:12;;;;;;;6.33;3.30;;;;;;;17.76;64.66;101009.70;1813775;78;21838;-80
2021/08/15 03:45:39;;;;;;;6.20;3.17;;;;;;;17.77;64.69;101004.34;1810064;78;21631;-80
2021/08/15 03:48:06;;;;;;;6.12;3.42;;;;;;;17.77;64.78;101004.80;1813604;79;21034;-80
2021/08/15 03:50:33;;;;;;;7.85;3.35;;;;;;;17.77;64.80;101001.68;1813539;78;21363;-80
2021/08/15 03:53:09;;;;;;;5.17;2.67;;;;;;;17.80;64.88;101006.14;1814067;78;21073;-80
2021/08/15 03:55:36;;;;;;;9.50;3.35;;;;;;;17.84;64.95;101006.58;1813537;79;21801;-79
2021/08/15 03:58:05;;;;;;;8.70;3.10;;;;;;;17.85;64.95;101001.73;1802175;78;21529;-79
2021/08/15 04:00:32;;;;;;;6.78;3.52;;;;;;;17.90;65.01;100996.39;1813980;79;20988;-79
2021/08/15 04:02:59;;;;;;;6.50;3.00;;;;;;;17.91;65.05;100986.20;1814077;79;21173;-79
2021/08/15 04:05:26;;;;;;;6.78;3.22;;;;;;;17.94;65.16;100987.05;1813508;79;21114;-79
2021/08/15 04:07:52;;;;;;;7.03;4.28;;;;;;;17.99;65.22;100989.72;1813210;79;21874;-79
2021/08/15 04:10:19;;;;;;;8.03;3.33;;;;;;;18.08;65.30;100985.72;1812208;78;21089;-79
2021/08/15 04:12:53;;;;;;;6.17;3.37;;;;;;;18.20;65.31;100991.45;1815553;78;21085;-79
2021/08/15 04:15:18;;;;;;;4.42;2.83;;;;;;;18.42;65.63;100988.28;1811127;78;21030;-79
2021/08/15 04:17:44;;;;;;;4.75;3.10;;;;;;;18.94;65.59;100992.08;1813914;78;21627;-80
2021/08/15 04:20:12;;;;;;;6.47;3.02;;;;;;;19.30;64.86;100980.72;1813312;78;22787;-80
2021/08/15 04:22:39;;;;;;;6.47;3.22;;;;;;;19.66;64.85;100983.11;1811466;78;21113;-79
2021/08/15 04:25:07;;;;;;;5.40;2.98;;;;;;;20.34;64.82;100976.66;1813524;79;21543;-79
2021/08/15 04:27:33;;;;;;;8.23;2.83;;;;;;;21.44;64.30;100985.00;1812841;78;21343;-80
2021/08/15 04:30:00;;;;;;;6.83;3.37;;;;;;;22.42;62.74;100986.84;1814091;79;21508;-80
2021/08/15 04:32:34;;;;;;;6.95;3.22;;;;;;;23.35;61.59;100983.00;1813083;79;22567;-80
2021/08/15 04:35:01;;;;;;;5.67;3.00;;;;;;;23.73;59.54;100975.81;1811010;78;21034;-80
2021/08/15 04:37:28;;;;;;;5.83;2.87;;;;;;;23.35;58.26;100978.54;1813577;78;21082;-80
2021/08/15 04:39:55;;;;;;;6.10;3.27;;;;;;;22.83;57.84;100984.61;1801727;78;21071;-80
2021/08/15 04:42:24;;;;;;;8.43;3.35;;;;;;;22.36;57.93;100982.48;1810691;79;21110;-80
2021/08/15 04:44:51;;;;;;;5.03;2.90;;;;;;;22.04;58.00;100986.64;1809158;78;21782;-80
2021/08/15 04:47:19;;;;;;;6.12;2.85;;;;;;;21.81;58.17;100984.39;1810901;79;21527;-80
2021/08/15 04:49:45;;;;;;;7.35;3.15;;;;;;;21.69;58.47;100980.10;1815696;78;21019;-80
2021/08/15 04:52:17;;;;;;;5.92;3.02;;;;;;;21.71;58.54;100980.08;1787302;79;22402;-80
2021/08/15 04:54:56;;;;;;;8.48;2.70;;;;;;;21.90;58.65;100979.30;1812904;79;21128;-80
2021/08/15 04:57:23;;;;;;;5.00;2.40;;;;;;;22.49;58.71;100980.44;1813681;78;21845;-80
2021/08/15 04:59:50;;;;;;;8.33;3.12;;;;;;;23.11;58.02;100975.09;1811792;78;21038;-80
2021/08/15 05:02:16;;;;;;;6.10;2.92;;;;;;;23.23;56.99;100975.66;1813718;79;21069;-80
2021/08/15 05:04:43;;;;;;;3.65;2.67;;;;;;;23.46;56.99;100978.25;1815277;78;21038;-80
2021/08/15 05:07:10;;;;;;;4.47;2.75;;;;;;;23.81;56.44;100973.35;1813525;79;21630;-80
2021/08/15 05:09:37;;;;;;;6.92;2.67;;;;;;;24.05;55.71;100987.08;1813773;79;21777;-80
2021/08/15 05:12:04;;;;;;;4.10;3.00;;;;;;;24.68;55.80;100984.42;1813609;79;21109;-80
2021/08/15 05:14:30;;;;;;;9.93;3.40;;;;;;;25.29;54.71;100985.72;1813973;79;21090;-80
2021/08/15 05:16:57;;;;;;;6.42;3.25;;;;;;;25.59;53.78;100971.69;1803099;78;21644;-80
2021/08/15 05:19:25;;;;;;;8.45;3.22;;;;;;;25.51;53.00;100976.44;1814108;79;21066;-80
2021/08/15 05:21:52;;;;;;;8.10;3.55;;;;;;;25.44;52.45;100989.25;1813590;78;21839;-81
2021/08/15 05:24:18;;;;;;;8.00;3.10;;;;;;;25.34;52.30;100990.02;1815297;78;21018;-80
2021/08/15 05:26:45;;;;;;;6.83;2.85;;;;;;;25.24;51.98;100984.50;1813268;79;21187;-81
2021/08/15 05:29:12;;;;;;;9.03;3.20;;;;;;;24.91;51.69;100987.31;1811393;78;21540;-81
2021/08/15 05:31:39;;;;;;;7.03;3.40;;;;;;;25.09;52.54;100980.92;1813653;79;21086;-80
2021/08/15 05:34:05;;;;;;;8.30;3.27;;;;;;;26.70;52.99;100983.45;1814510;79;21793;-81
2021/08/15 05:36:32;;;;;;;7.60;3.25;;;;;;;28.31;51.26;100977.72;1814181;79;21046;-81
2021/08/15 05:39:02;;;;;;;6.55;3.35;;;;;;;28.88;49.64;100979.15;1806654;79;21354;-81
2021/08/15 05:41:31;;;;;;;7.67;3.60;;;;;;;29.23;48.32;100973.89;1815200;78;21639;-81
2021/08/15 05:44:03;;;;;;;10.60;4.00;;;;;;;29.05;46.70;100979.69;1812925;78;21003;-81
2021/08/15 05:46:33;;;;;;;5.67;2.95;;;;;;;28.49;46.41;100978.68;1812092;78;22352;-81
2021/08/15 05:49:03;;;;;;;5.80;3.47;;;;;;;28.05;46.44;100983.81;1788254;79;21552;-81
2021/08/15 05:51:29;;;;;;;7.65;3.50;;;;;;;27.70;46.40;100981.25;1803689;79;21101;-81
2021/08/15 05:53:56;;;;;;;7.30;3.12;;;;;;;27.33;46.27;100974.23;1812963;78;21737;-81
2021/08/15 05:56:23;;;;;;;7.12;3.50;;;;;;;26.84;46.43;100972.58;1813987;79;21042;-81
2021/08/15 05:58:50;;;;;;;10.40;3.70;;;;;;;26.44;46.75;100979.48;1812019;78;21757;-81
2021/08/15 06:01:17;;;;;;;8.48;3.40;;;;;;;26.03;46.81;100975.14;1815660;78;21019;-81
2021/08/15 06:03:43;;;;;;;9.43;3.35;;;;;;;25.57;47.06;100970.86;1809835;79;21536;-81
2021/08/15 06:06:10;;;;;;;9.98;3.65;;;;;;;25.19;47.34;100975.67;1813323;78;21528;-81
2021/08/15 06:08:44;;;;;;;6.28;2.87;;;;;;;24.89;47.78;100962.69;1813791;79;21047;-80
2021/08/15 06:11:10;;;;;;;8.78;2.98;;;;;;;24.69;48.15;100958.81;1801791;78;22629;-81
2021/08/15 06:13:37;;;;;;;5.95;2.90;;;;;;;24.51;48.43;100963.36;1812208;78;21542;-81
2021/08/15 06:16:04;;;;;;;6.80;3.12;;;;;;;24.35;48.81;100967.85;1813117;79;21085;-80
2021/08/15 06:18:31;;;;;;;6.00;3.05;;;;;;;24.19;48.89;100971.42;1813954;79;21023;-80
2021/08/15 06:20:57;;;;;;;6.90;3.20;;;;;;;23.97;49.11;100978.31;1813747;79;21078;-80
2021/08/15 06:23:24;;;;;;;10.50;3.40;;;;;;;23.84;49.34;100984.51;1813318;78;21740;-80
2021/08/15 06:25:51;;;;;;;9.28;3.30;;;;;;;23.71;49.65;100977.66;1813636;79;21539;-80
2021/08/15 06:28:37;;;;;;;10.43;3.50;;;;;;;23.60;49.83;100982.83;1800027;79;20996;-80
2021/08/15 06:31:05;;;;;;;8.05;3.55;;;;;;;23.45;49.99;100989.47;1813030;78;20995;-79
2021/08/15 06:33:32;;;;;;;9.10;3.08;;;;;;;23.31;50.16;100978.63;1812780;79;21093;-81
2021/08/15 06:35:59;;;;;;;7.35;3.52;;;;;;;23.01;50.35;100956.92;1810811;78;21841;-80
2021/08/15 06:38:26;;;;;;;8.40;3.42;;;;;;;22.97;50.47;100979.39;1814711;78;21057;-79
2021/08/15 06:40:53;;;;;;;6.87;3.25;;;;;;;22.84;50.79;100987.73;1809988;79;21042;-79
2021/08/15 06:43:20;;;;;;;8.00;3.62;;;;;;;22.74;50.94;100986.16;1811293;78;21513;-79
2021/08/15 06:45:47;;;;;;;7.62;3.00;;;;;;;22.73;51.14;100993.80;1814059;79;21003;-78
2021/08/15 06:48:14;;;;;;;9.05;3.02;;;;;;;22.76;51.22;100988.81;1810384;79;21820;-79
2021/08/15 06:50:40;;;;;;;9.58;3.35;;;;;;;22.74;51.34;100994.67;1810838;78;21054;-79
2021/08/15 06:53:07;;;;;;;7.35;3.20;;;;;;;22.80;51.57;100998.55;1812299;78;21065;-80
2021/08/15 06:55:34;;;;;;;6.83;3.12;;;;;;;22.98;51.86;100989.23;1813702;79;21216;-79
2021/08/15 06:58:05;;;;;;;5.80;3.10;;;;;;;23.25;51.35;100952.80;1788180;79;21062;-80
2021/08/15 07:00:31;;;;;;;8.25;3.67;;;;;;;23.25;51.35;100952.80;1809873;79;21784;-80
2021/08/15 07:03:00;;;;;;;6.45;3.17;;;;;;;23.40;51.24;100963.16;1814083;79;21082;-80
2021/08/15 07:05:27;;;;;;;7.87;3.17;;;;;;;23.55;51.17;100947.59;1814488;78;32861;-80
2021/08/15 07:07:54;;;;;;;9.38;3.62;;;;;;;23.92;50.79;100972.20;1812923;78;21363;-79
2021/08/15 07:10:23;;;;;;;13.30;3.20;;;;;;;23.92;50.79;100972.20;1800712;79;21520;-80
2021/08/15 07:12:53;;;;;;;10.23;3.70;;;;;;;23.95;50.35;100972.09;1811350;78;21763;-80
2021/08/15 07:15:19;;;;;;;5.97;2.65;;;;;;;24.00;49.90;100958.95;1813154;79;21462;-79
2021/08/15 07:17:46;;;;;;;7.92;2.62;;;;;;;24.11;49.48;100957.31;1807545;78;21101;-79
2021/08/15 07:20:14;;;;;;;6.55;2.60;;;;;;;24.03;48.92;100953.97;1812483;78;21054;-79
2021/08/15 07:22:41;;;;;;;7.47;3.10;;;;;;;23.96;48.96;100959.97;1811835;79;21014;-79
2021/08/15 07:25:10;;;;;;;6.25;2.42;;;;;;;24.02;49.14;100954.41;1817536;78;21019;-79
2021/08/15 07:27:37;;;;;;;6.37;2.62;;;;;;;24.15;49.13;100955.42;1813349;79;21081;-79
2021/08/15 07:30:04;;;;;;;7.10;2.75;;;;;;;24.38;48.86;100941.31;1809845;78;21062;-80
2021/08/15 07:32:32;;;;;;;10.25;3.02;;;;;;;24.50;48.41;100949.50;1803685;79;21161;-80
2021/08/15 07:35:01;;;;;;;13.32;3.08;;;;;;;24.54;48.17;100953.42;1814242;79;21038;-81
2021/08/15 07:37:28;;;;;;;6.65;2.67;;;;;;;24.59;47.97;100962.72;1814149;79;21759;-80
2021/08/15 07:39:56;;;;;;;9.25;2.80;;;;;;;24.76;47.93;100968.47;1813786;79;21093;-80
2021/08/15 07:42:22;;;;;;;6.42;2.45;;;;;;;24.85;47.64;100960.55;1813554;79;21061;-81
2021/08/15 07:44:49;;;;;;;7.95;3.30;;;;;;;24.81;47.27;100960.23;1813558;79;21364;-80
2021/08/15 07:47:18;;;;;;;9.28;3.25;;;;;;;24.76;47.27;100952.31;1813795;79;21038;-80
2021/08/15 07:49:44;;;;;;;6.62;2.83;;;;;;;24.76;47.21;100950.09;1815167;78;21888;-79
2021/08/15 07:52:11;;;;;;;7.62;3.00;;;;;;;24.64;47.17;100952.23;1814133;79;21064;-79
2021/08/15 07:54:38;;;;;;;6.72;2.60;;;;;;;24.48;47.25;100958.96;1816560;78;21034;-79
2021/08/15 07:57:05;;;;;;;9.03;2.55;;;;;;;24.36;47.34;100956.17;1815254;78;21070;-79
2021/08/15 07:59:32;;;;;;;7.30;3.00;;;;;;;24.12;47.21;100949.69;1806591;79;21077;-80
2021/08/15 08:01:58;;;;;;;8.78;3.25;;;;;;;23.90;47.10;100961.95;1813284;78;22437;-79
2021/08/15 08:04:25;;;;;;;5.37;3.05;;;;;;;23.65;47.08;100962.58;1814386;79;21039;-79
2021/08/15 08:06:52;;;;;;;7.62;2.80;;;;;;;23.40;47.03;100956.45;1815863;78;21519;-79
2021/08/15 08:09:18;;;;;;;6.12;2.80;;;;;;;22.99;47.25;100955.64;1814618;79;21022;-79
2021/08/15 08:11:45;;;;;;;10.75;3.00;;;;;;;22.99;47.25;100955.64;1814377;79;21307;-79
2021/08/15 08:14:12;;;;;;;5.37;2.67;;;;;;;22.91;47.62;100960.28;1815528;78;21739;-79
2021/08/15 08:16:38;;;;;;;8.38;2.83;;;;;;;22.87;47.79;100966.64;1813972;79;21532;-79
2021/08/15 08:19:05;;;;;;;8.73;2.30;;;;;;;22.88;47.54;100963.02;1813058;79;21066;-79
2021/08/15 08:21:32;;;;;;;6.97;2.70;;;;;;;22.85;47.61;100963.11;1813635;78;21508;-79
2021/08/15 08:24:02;;;;;;;5.65;2.80;;;;;;;22.87;47.74;100966.17;1801224;78;21380;-79
2021/08/15 08:26:27;;;;;;;7.90;2.85;;;;;;;22.89;47.68;100966.15;1789362;78;21944;-79
2021/08/15 08:28:56;;;;;;;8.58;3.08;;;;;;;22.93;47.39;100967.84;1812685;78;21058;-80
2021/08/15 08:31:26;;;;;;;6.08;2.50;;;;;;;22.92;47.40;100958.04;1809984;79;21034;-80
2021/08/15 08:33:57;;;;;;;7.50;3.00;;;;;;;22.92;47.40;100958.04;1813292;79;21590;-80
2021/08/15 08:36:22;;;;;;;4.85;2.52;;;;;;;22.96;47.18;100972.27;1815446;78;21473;-80
2021/08/15 08:38:50;;;;;;;8.48;2.50;;;;;;;22.96;47.18;100972.27;1808768;78;21806;-79
2021/08/15 08:41:17;;;;;;;8.33;2.58;;;;;;;22.96;47.13;100973.15;1815872;78;21563;-80
2021/08/15 08:43:44;;;;;;;6.05;2.27;;;;;;;22.91;46.76;100974.58;1814016;78;21038;-80
2021/08/15 08:46:11;;;;;;;4.22;2.20;;;;;;;22.93;46.61;100977.23;1814407;78;21715;-80
2021/08/15 08:48:38;;;;;;;7.42;2.72;;;;;;;22.94;46.64;100984.38;1813495;79;21041;-80
2021/08/15 08:51:07;;;;;;;7.58;3.35;;;;;;;22.95;46.61;100985.26;1814983;78;21006;-80
2021/08/15 08:53:35;;;;;;;12.78;2.58;;;;;;;22.87;45.86;100950.07;1813955;79;21046;-80
2021/08/15 08:56:02;;;;;;;5.60;3.47;;;;;;;22.87;45.86;100950.07;1813918;79;21097;-80
2021/08/15 08:58:29;;;;;;;4.25;2.05;;;;;;;23.04;45.69;100969.85;1814065;79;21082;-80
2021/08/15 09:00:56;;;;;;;5.95;2.33;;;;;;;23.19;45.48;100957.87;1816572;78;20983;-80
2021/08/15 09:03:23;;;;;;;9.85;2.30;;;;;;;23.38;45.45;100964.14;1810030;78;21839;-80
2021/08/15 09:05:54;;;;;;;8.43;2.50;;;;;;;23.56;45.22;100954.75;1813112;78;21061;-80
2021/08/15 09:08:28;;;;;;;7.85;2.30;;;;;;;23.70;45.08;100959.75;1784459;79;21571;-80
2021/08/15 09:11:16;;;;;;;10.58;3.05;;;;;;;23.82;44.75;100965.73;1812954;78;21112;-80
2021/08/15 09:13:45;;;;;;;8.23;2.20;;;;;;;23.93;44.69;100965.88;1815926;78;21050;-80
2021/08/15 09:16:13;;;;;;;7.40;2.55;;;;;;;24.01;43.87;100974.17;1806226;79;21772;-80
2021/08/15 09:18:40;;;;;;;5.62;2.52;;;;;;;23.90;42.83;100949.39;1803032;79;21004;-80
2021/08/15 09:21:07;;;;;;;5.92;2.22;;;;;;;24.05;42.66;100972.28;1811015;78;21046;-82
2021/08/15 09:23:35;;;;;;;10.32;2.58;;;;;;;24.05;42.66;100972.28;1763899;79;21607;-79
2021/08/15 09:26:18;;;;;;;6.30;1.90;;;;;;;24.14;42.56;100980.55;1816778;78;22197;-78
2021/08/15 09:28:47;;;;;;;4.50;1.77;;;;;;;24.22;42.20;100985.27;1814132;79;21880;-79
2021/08/15 09:31:34;;;;;;;4.03;1.98;;;;;;;24.28;41.81;100971.64;1814314;79;21480;-79
2021/08/15 09:34:02;;;;;;;5.87;2.15;;;;;;;24.35;41.78;100966.98;1813889;79;21504;-79
2021/08/15 09:36:33;;;;;;;5.08;2.25;;;;;;;24.36;41.70;100951.23;1813196;79;21010;-82
2021/08/15 09:39:05;;;;;;;5.62;2.58;;;;;;;24.64;41.61;100968.83;1813927;79;21042;-80
2021/08/15 09:41:36;;;;;;;8.53;2.62;;;;;;;24.84;41.24;100972.27;1813362;79;21802;-79
2021/08/15 09:44:24;;;;;;;6.45;1.95;;;;;;;25.07;40.63;100966.63;1789189;79;21045;-79
2021/08/15 09:47:09;;;;;;;7.15;2.00;;;;;;;25.29;40.25;100966.86;1807045;79;21473;-80
2021/08/15 09:49:47;;;;;;;7.95;2.27;;;;;;;25.46;39.92;100983.34;1813526;79;21076;-80
2021/08/15 09:52:19;;;;;;;4.78;2.02;;;;;;;25.63;39.53;100973.81;1813888;78;21022;-80
2021/08/15 09:54:57;;;;;;;7.00;2.92;;;;;;;25.81;39.33;100967.79;1814623;78;21803;-80
2021/08/15 09:57:36;;;;;;;7.37;2.45;;;;;;;25.96;38.89;100963.70;1813149;78;21578;-80
2021/08/15 10:00:06;;;;;;;10.90;3.95;;;;;;;26.07;38.72;100970.04;1813792;79;21027;-80
2021/08/15 10:02:33;;;;;;;6.10;2.70;;;;;;;26.17;38.29;100964.27;1809608;79;21195;-80
2021/08/15 10:05:00;;;;;;;7.75;2.80;;;;;;;26.24;38.21;100961.33;1813029;78;21053;-80
2021/08/15 10:07:26;;;;;;;7.75;2.20;;;;;;;26.31;38.27;100962.39;1815551;78;21762;-80
2021/08/15 10:09:53;;;;;;;4.87;1.90;;;;;;;26.49;38.21;100962.19;1789398;78;21591;-80
2021/08/15 10:12:20;;;;;;;4.75;2.40;;;;;;;26.75;38.15;100960.34;1815919;78;21046;-80
2021/08/15 10:14:47;;;;;;;8.50;2.30;;;;;;;27.01;37.69;100954.35;1814133;79;21061;-80
2021/08/15 10:17:16;;;;;;;9.13;2.30;;;;;;;27.15;37.34;100956.04;1814844;78;21477;-80
2021/08/15 10:19:55;;;;;;;6.17;2.40;;;;;;;27.29;37.10;100960.89;1812540;78;21802;-82
2021/08/15 10:22:26;;;;;;;5.10;2.75;;;;;;;27.40;36.78;100961.33;1813602;78;21065;-80
2021/08/15 10:24:55;;;;;;;6.00;3.17;;;;;;;27.46;36.38;100960.19;1815551;78;20988;-81
2021/08/15 10:27:47;;;;;;;6.55;2.20;;;;;;;27.45;36.16;100953.05;1807158;79;21010;-80
2021/08/15 10:30:24;;;;;;;3.77;1.98;;;;;;;27.41;36.14;100959.53;1813684;79;20987;-80
2021/08/15 10:33:02;;;;;;;4.95;2.15;;;;;;;27.36;36.11;100953.42;1814119;79;21801;-80
2021/08/15 10:35:33;;;;;;;5.53;2.33;;;;;;;27.22;35.90;100956.68;1816944;78;21540;-80
2021/08/15 10:38:07;;;;;;;8.83;2.40;;;;;;;27.06;35.76;100962.69;1814222;79;21062;-79
2021/08/15 10:40:47;;;;;;;11.63;3.33;;;;;;;26.90;35.53;100963.78;1814188;79;21485;-80
2021/08/15 10:43:30;;;;;;;7.30;2.20;;;;;;;26.74;35.22;100968.02;1813276;79;20991;-80
2021/08/15 10:46:22;;;;;;;8.60;3.02;;;;;;;26.54;35.42;100976.40;1814732;79;21783;-80
2021/08/15 10:49:07;;;;;;;5.42;2.33;;;;;;;26.46;35.63;100966.34;1814941;78;21034;-80
2021/08/15 10:51:49;;;;;;;8.23;2.58;;;;;;;26.67;35.90;100964.70;1814602;78;21176;-79
2021/08/15 10:54:33;;;;;;;7.67;2.85;;;;;;;26.93;35.95;100951.52;1813817;78;21058;-81
2021/08/15 10:57:08;;;;;;;8.70;2.92;;;;;;;27.02;35.79;100960.19;1812811;78;21046;-80
2021/08/15 10:59:40;;;;;;;6.28;2.90;;;;;;;27.11;35.57;100960.69;1815587;78;21795;-80
2021/08/15 11:02:16;;;;;;;5.42;2.87;;;;;;;27.14;35.62;100965.98;1814663;79;21549;-80
2021/08/15 11:05:03;;;;;;;11.57;2.77;;;;;;;27.20;35.60;100951.33;1811125;78;21002;-80
2021/08/15 11:07:39;;;;;;;4.28;2.22;;;;;;;27.15;35.32;100947.93;1813479;78;21069;-79
2021/08/15 11:10:08;;;;;;;6.08;2.47;;;;;;;27.09;35.50;100954.47;1815008;78;21011;-80
2021/08/15 11:12:35;;;;;;;9.50;2.90;;;;;;;27.23;35.53;100954.37;1816502;78;21892;-80
2021/08/15 11:15:08;;;;;;;7.28;2.40;;;;;;;27.34;35.31;100956.19;1813221;78;21078;-80
2021/08/15 11:17:38;;;;;;;6.25;2.37;;;;;;;27.34;35.17;100961.59;1813896;79;21077;-80
2021/08/15 11:20:32;;;;;;;5.58;2.22;;;;;;;27.25;35.24;100958.79;1815499;78;21019;-80
2021/08/15 11:23:15;;;;;;;4.92;2.22;;;;;;;27.23;35.22;100953.02;1812946;78;21134;-80
2021/08/15 11:25:44;;;;;;;5.40;2.52;;;;;;;27.24;35.32;100954.80;1818362;78;22574;-80
2021/08/15 11:28:13;;;;;;;6.70;2.55;;;;;;;27.29;35.49;100950.98;1809489;79;21575;-80
2021/08/15 11:30:40;;;;;;;6.20;2.55;;;;;;;27.36;35.23;100950.72;1814077;79;21049;-79
2021/08/15 11:33:08;;;;;;;10.50;2.75;;;;;;;27.41;35.05;100945.53;1814087;79;21051;-80